sensor_id;sensor_type;location;lat;lon;timestamp;temperature;humidity
13433;DHT22;6789;47.678;9.158;2023-07-31T00:04:45;16.90;99.90
13433;DHT22;6789;47.678;9.158;2023-07-31T00:09:37;16.90;99.90
13433;DHT22;6789;47.678;9.158;2023-07-31T00:14:29;17.00;99.90
13433;DHT22;6789;47.678;9.158;2023-07-31T00:19:21;17.00;99.90
13433;DHT22;6789;47.678;9.158;2023-07-31T00:24:13;17.00;99.90
13433;DHT22;6789;47.678;9.158;2023-07-31T00:29:04;16.80;99.90
13433;DHT22;6789;47.678;9.158;2023-07-31T00:33:56;16.50;99.90
13433;DHT22;6789;47.678;9.158;2023-07-31T00:38:48;16.30;99.90
13433;DHT22;6789;47.678;9.158;2023-07-31T00:43:40;16.30;99.90
13433;DHT22;6789;47.678;9.158;2023-07-31T00:48:32;16.20;99.90
13433;DHT22;6789;47.678;9.158;2023-07-31T00:53:26;16.20;99.90
13433;DHT22;6789;47.678;9.158;2023-07-31T00:58:19;16.10;99.90
13433;DHT22;6789;47.678;9.158;2023-07-31T01:03:11;16.00;99.90
13433;DHT22;6789;47.678;9.158;2023-07-31T01:08:32;16.10;99.90
13433;DHT22;6789;47.678;9.158;2023-07-31T01:13:32;16.20;99.90
13433;DHT22;6789;47.678;9.158;2023-07-31T01:18:25;16.40;99.90
13433;DHT22;6789;47.678;9.158;2023-07-31T01:23:41;16.40;99.90
13433;DHT22;6789;47.678;9.158;2023-07-31T01:34:00;16.40;99.90
13433;DHT22;6789;47.678;9.158;2023-07-31T01:38:58;16.50;99.90
13433;DHT22;6789;47.678;9.158;2023-07-31T01:43:50;16.50;99.90
13433;DHT22;6789;47.678;9.158;2023-07-31T01:48:42;16.60;99.90
13433;DHT22;6789;47.678;9.158;2023-07-31T01:53:34;16.70;99.90
13433;DHT22;6789;47.678;9.158;2023-07-31T01:58:26;17.10;99.90
13433;DHT22;6789;47.678;9.158;2023-07-31T02:03:17;17.30;99.90
13433;DHT22;6789;47.678;9.158;2023-07-31T02:08:09;17.40;99.90
13433;DHT22;6789;47.678;9.158;2023-07-31T02:13:01;17.50;99.90
13433;DHT22;6789;47.678;9.158;2023-07-31T02:17:55;17.60;99.90
13433;DHT22;6789;47.678;9.158;2023-07-31T02:22:46;17.50;99.90
13433;DHT22;6789;47.678;9.158;2023-07-31T02:27:38;17.30;99.90
13433;DHT22;6789;47.678;9.158;2023-07-31T02:32:30;17.20;99.90
13433;DHT22;6789;47.678;9.158;2023-07-31T02:37:22;16.90;99.90
13433;DHT22;6789;47.678;9.158;2023-07-31T02:42:14;16.90;99.90
13433;DHT22;6789;47.678;9.158;2023-07-31T02:47:06;16.80;99.90
13433;DHT22;6789;47.678;9.158;2023-07-31T02:51:58;16.90;99.90
13433;DHT22;6789;47.678;9.158;2023-07-31T02:56:50;17.00;99.90
13433;DHT22;6789;47.678;9.158;2023-07-31T03:01:42;17.20;99.90
13433;DHT22;6789;47.678;9.158;2023-07-31T03:06:33;17.20;99.90
13433;DHT22;6789;47.678;9.158;2023-07-31T03:11:25;17.20;99.90
13433;DHT22;6789;47.678;9.158;2023-07-31T03:16:17;17.00;99.90
13433;DHT22;6789;47.678;9.158;2023-07-31T03:21:09;16.90;99.90
13433;DHT22;6789;47.678;9.158;2023-07-31T03:26:02;16.80;99.90
13433;DHT22;6789;47.678;9.158;2023-07-31T03:30:57;16.70;99.90
13433;DHT22;6789;47.678;9.158;2023-07-31T03:35:49;16.70;99.90
13433;DHT22;6789;47.678;9.158;2023-07-31T03:40:40;16.60;99.90
13433;DHT22;6789;47.678;9.158;2023-07-31T03:45:32;16.50;99.90
13433;DHT22;6789;47.678;9.158;2023-07-31T03:50:24;16.50;99.90
13433;DHT22;6789;47.678;9.158;2023-07-31T03:55:16;16.60;99.90
13433;DHT22;6789;47.678;9.158;2023-07-31T04:00:09;16.70;99.90
13433;DHT22;6789;47.678;9.158;2023-07-31T04:05:02;16.80;99.90
13433;DHT22;6789;47.678;9.158;2023-07-31T04:09:54;16.80;99.90
13433;DHT22;6789;47.678;9.158;2023-07-31T04:14:46;16.70;99.90
13433;DHT22;6789;47.678;9.158;2023-07-31T04:19:38;16.80;99.90
13433;DHT22;6789;47.678;9.158;2023-07-31T04:24:29;16.90;99.90
13433;DHT22;6789;47.678;9.158;2023-07-31T04:29:21;17.10;99.90
13433;DHT22;6789;47.678;9.158;2023-07-31T04:34:13;17.30;99.90
13433;DHT22;6789;47.678;9.158;2023-07-31T04:39:05;17.50;99.90
13433;DHT22;6789;47.678;9.158;2023-07-31T04:43:57;17.60;99.90
13433;DHT22;6789;47.678;9.158;2023-07-31T04:48:49;17.80;99.90
13433;DHT22;6789;47.678;9.158;2023-07-31T04:53:41;17.80;99.90
13433;DHT22;6789;47.678;9.158;2023-07-31T04:58:33;18.00;99.90
13433;DHT22;6789;47.678;9.158;2023-07-31T05:03:27;18.40;99.90
13433;DHT22;6789;47.678;9.158;2023-07-31T05:08:19;19.00;99.90
13433;DHT22;6789;47.678;9.158;2023-07-31T05:13:11;19.50;99.90
13433;DHT22;6789;47.678;9.158;2023-07-31T05:18:02;19.90;99.90
13433;DHT22;6789;47.678;9.158;2023-07-31T05:22:54;19.90;99.90
13433;DHT22;6789;47.678;9.158;2023-07-31T05:27:46;20.20;99.90
13433;DHT22;6789;47.678;9.158;2023-07-31T05:32:38;20.60;99.90
13433;DHT22;6789;47.678;9.158;2023-07-31T05:37:30;20.70;99.90
13433;DHT22;6789;47.678;9.158;2023-07-31T05:42:22;20.60;99.90
13433;DHT22;6789;47.678;9.158;2023-07-31T05:47:13;20.70;99.90
13433;DHT22;6789;47.678;9.158;2023-07-31T05:52:06;20.30;99.90
13433;DHT22;6789;47.678;9.158;2023-07-31T05:56:59;20.00;99.90
13433;DHT22;6789;47.678;9.158;2023-07-31T06:01:51;19.80;99.90
13433;DHT22;6789;47.678;9.158;2023-07-31T06:06:43;19.70;99.90
13433;DHT22;6789;47.678;9.158;2023-07-31T06:11:35;19.50;99.90
13433;DHT22;6789;47.678;9.158;2023-07-31T06:16:27;19.40;99.90
13433;DHT22;6789;47.678;9.158;2023-07-31T06:21:19;19.40;99.90
13433;DHT22;6789;47.678;9.158;2023-07-31T06:26:11;19.60;99.90
13433;DHT22;6789;47.678;9.158;2023-07-31T06:31:04;19.70;99.90
13433;DHT22;6789;47.678;9.158;2023-07-31T06:35:56;19.70;99.90
13433;DHT22;6789;47.678;9.158;2023-07-31T06:40:50;19.90;99.90
13433;DHT22;6789;47.678;9.158;2023-07-31T06:45:42;19.90;99.90
13433;DHT22;6789;47.678;9.158;2023-07-31T06:50:33;19.90;99.90
13433;DHT22;6789;47.678;9.158;2023-07-31T06:55:26;19.80;99.90
13433;DHT22;6789;47.678;9.158;2023-07-31T07:00:19;19.90;99.90
13433;DHT22;6789;47.678;9.158;2023-07-31T07:05:12;19.90;99.90
13433;DHT22;6789;47.678;9.158;2023-07-31T07:10:04;19.90;99.90
13433;DHT22;6789;47.678;9.158;2023-07-31T07:14:56;20.20;99.90
13433;DHT22;6789;47.678;9.158;2023-07-31T07:19:51;20.70;99.90
13433;DHT22;6789;47.678;9.158;2023-07-31T07:24:44;21.40;99.90
13433;DHT22;6789;47.678;9.158;2023-07-31T07:29:38;22.10;99.90
13433;DHT22;6789;47.678;9.158;2023-07-31T07:34:31;22.10;99.90
13433;DHT22;6789;47.678;9.158;2023-07-31T07:39:22;22.10;99.90
13433;DHT22;6789;47.678;9.158;2023-07-31T07:44:14;22.20;99.90
13433;DHT22;6789;47.678;9.158;2023-07-31T07:49:06;22.10;99.90
13433;DHT22;6789;47.678;9.158;2023-07-31T07:53:59;21.80;99.90
13433;DHT22;6789;47.678;9.158;2023-07-31T07:58:52;21.60;99.90
13433;DHT22;6789;47.678;9.158;2023-07-31T08:03:50;21.50;99.90
13433;DHT22;6789;47.678;9.158;2023-07-31T08:08:42;21.70;99.90
13433;DHT22;6789;47.678;9.158;2023-07-31T08:13:33;21.90;99.90
13433;DHT22;6789;47.678;9.158;2023-07-31T08:18:28;22.10;99.90
13433;DHT22;6789;47.678;9.158;2023-07-31T08:23:20;22.50;99.90
13433;DHT22;6789;47.678;9.158;2023-07-31T08:28:11;22.60;99.90
13433;DHT22;6789;47.678;9.158;2023-07-31T08:33:03;22.70;99.90
13433;DHT22;6789;47.678;9.158;2023-07-31T08:37:55;22.70;99.90
13433;DHT22;6789;47.678;9.158;2023-07-31T08:42:50;22.70;99.90
13433;DHT22;6789;47.678;9.158;2023-07-31T08:47:48;22.60;99.90
13433;DHT22;6789;47.678;9.158;2023-07-31T08:52:42;22.80;99.90
13433;DHT22;6789;47.678;9.158;2023-07-31T08:57:36;22.60;99.90
13433;DHT22;6789;47.678;9.158;2023-07-31T09:02:38;22.80;99.90
13433;DHT22;6789;47.678;9.158;2023-07-31T09:07:37;23.00;99.90
13433;DHT22;6789;47.678;9.158;2023-07-31T09:12:30;23.00;99.90
13433;DHT22;6789;47.678;9.158;2023-07-31T09:17:33;23.10;99.90
13433;DHT22;6789;47.678;9.158;2023-07-31T09:22:34;23.20;99.90
13433;DHT22;6789;47.678;9.158;2023-07-31T09:27:28;23.50;99.90
13433;DHT22;6789;47.678;9.158;2023-07-31T09:32:37;23.00;99.90
13433;DHT22;6789;47.678;9.158;2023-07-31T09:37:29;22.90;99.90
13433;DHT22;6789;47.678;9.158;2023-07-31T09:42:25;23.00;99.90
13433;DHT22;6789;47.678;9.158;2023-07-31T09:47:22;23.20;99.90
13433;DHT22;6789;47.678;9.158;2023-07-31T09:52:18;23.50;99.90
13433;DHT22;6789;47.678;9.158;2023-07-31T09:57:10;23.80;99.90
13433;DHT22;6789;47.678;9.158;2023-07-31T10:02:03;23.50;99.90
13433;DHT22;6789;47.678;9.158;2023-07-31T10:06:56;23.50;99.90
13433;DHT22;6789;47.678;9.158;2023-07-31T10:11:59;23.80;99.90
13433;DHT22;6789;47.678;9.158;2023-07-31T10:16:52;23.90;99.90
13433;DHT22;6789;47.678;9.158;2023-07-31T10:21:55;24.00;99.90
13433;DHT22;6789;47.678;9.158;2023-07-31T10:26:52;23.80;99.90
13433;DHT22;6789;47.678;9.158;2023-07-31T10:31:46;23.70;99.90
13433;DHT22;6789;47.678;9.158;2023-07-31T10:36:39;23.90;99.90
13433;DHT22;6789;47.678;9.158;2023-07-31T10:41:31;23.90;99.90
13433;DHT22;6789;47.678;9.158;2023-07-31T10:46:23;24.10;99.90
13433;DHT22;6789;47.678;9.158;2023-07-31T10:51:20;24.50;99.90
13433;DHT22;6789;47.678;9.158;2023-07-31T10:56:14;24.50;99.90
13433;DHT22;6789;47.678;9.158;2023-07-31T11:01:11;24.60;99.90
13433;DHT22;6789;47.678;9.158;2023-07-31T11:06:06;24.90;99.90
13433;DHT22;6789;47.678;9.158;2023-07-31T11:15:53;24.70;99.90
13433;DHT22;6789;47.678;9.158;2023-07-31T11:20:45;24.50;99.90
13433;DHT22;6789;47.678;9.158;2023-07-31T11:25:38;24.50;99.90
13433;DHT22;6789;47.678;9.158;2023-07-31T11:30:34;24.60;99.90
13433;DHT22;6789;47.678;9.158;2023-07-31T11:35:27;24.90;99.90
13433;DHT22;6789;47.678;9.158;2023-07-31T11:40:19;25.10;99.90
13433;DHT22;6789;47.678;9.158;2023-07-31T11:45:16;25.30;99.90
13433;DHT22;6789;47.678;9.158;2023-07-31T11:50:10;25.70;99.90
13433;DHT22;6789;47.678;9.158;2023-07-31T11:55:04;25.70;99.90
13433;DHT22;6789;47.678;9.158;2023-07-31T11:59:58;25.60;99.90
13433;DHT22;6789;47.678;9.158;2023-07-31T12:04:50;25.70;99.90
13433;DHT22;6789;47.678;9.158;2023-07-31T12:09:55;25.60;99.90
13433;DHT22;6789;47.678;9.158;2023-07-31T12:14:48;25.50;99.90
13433;DHT22;6789;47.678;9.158;2023-07-31T12:19:42;25.20;99.90
13433;DHT22;6789;47.678;9.158;2023-07-31T12:24:35;25.60;99.90
13433;DHT22;6789;47.678;9.158;2023-07-31T12:29:35;25.70;99.90
13433;DHT22;6789;47.678;9.158;2023-07-31T12:34:42;25.80;99.90
13433;DHT22;6789;47.678;9.158;2023-07-31T12:39:34;25.70;99.90
13433;DHT22;6789;47.678;9.158;2023-07-31T12:44:26;25.60;99.90
13433;DHT22;6789;47.678;9.158;2023-07-31T12:49:20;25.50;99.90
13433;DHT22;6789;47.678;9.158;2023-07-31T12:54:12;25.50;99.90
13433;DHT22;6789;47.678;9.158;2023-07-31T12:59:04;25.40;99.90
13433;DHT22;6789;47.678;9.158;2023-07-31T13:03:56;25.60;99.90
13433;DHT22;6789;47.678;9.158;2023-07-31T13:08:48;26.00;99.90
13433;DHT22;6789;47.678;9.158;2023-07-31T13:13:40;26.30;99.90
13433;DHT22;6789;47.678;9.158;2023-07-31T13:18:32;26.50;99.90
13433;DHT22;6789;47.678;9.158;2023-07-31T13:23:24;26.20;99.90
13433;DHT22;6789;47.678;9.158;2023-07-31T13:28:16;26.50;99.90
13433;DHT22;6789;47.678;9.158;2023-07-31T13:33:08;27.20;99.90
13433;DHT22;6789;47.678;9.158;2023-07-31T13:38:15;27.40;99.90
13433;DHT22;6789;47.678;9.158;2023-07-31T13:43:10;27.60;99.90
13433;DHT22;6789;47.678;9.158;2023-07-31T13:48:01;27.40;99.90
13433;DHT22;6789;47.678;9.158;2023-07-31T13:52:55;27.30;99.90
13433;DHT22;6789;47.678;9.158;2023-07-31T13:57:47;27.40;99.90
13433;DHT22;6789;47.678;9.158;2023-07-31T14:02:40;26.90;99.90
13433;DHT22;6789;47.678;9.158;2023-07-31T14:07:32;26.70;99.90
13433;DHT22;6789;47.678;9.158;2023-07-31T14:12:24;26.70;99.90
13433;DHT22;6789;47.678;9.158;2023-07-31T14:17:22;26.40;99.90
13433;DHT22;6789;47.678;9.158;2023-07-31T14:22:14;26.60;99.90
13433;DHT22;6789;47.678;9.158;2023-07-31T14:27:06;26.90;99.90
13433;DHT22;6789;47.678;9.158;2023-07-31T14:31:58;26.80;99.90
13433;DHT22;6789;47.678;9.158;2023-07-31T14:36:51;26.40;99.90
13433;DHT22;6789;47.678;9.158;2023-07-31T14:41:43;26.40;99.90
13433;DHT22;6789;47.678;9.158;2023-07-31T14:46:35;26.50;99.90
13433;DHT22;6789;47.678;9.158;2023-07-31T14:51:26;26.40;99.90
13433;DHT22;6789;47.678;9.158;2023-07-31T14:56:18;26.40;99.90
13433;DHT22;6789;47.678;9.158;2023-07-31T15:01:10;26.50;99.90
13433;DHT22;6789;47.678;9.158;2023-07-31T15:06:02;26.50;99.90
13433;DHT22;6789;47.678;9.158;2023-07-31T15:10:55;26.40;99.90
13433;DHT22;6789;47.678;9.158;2023-07-31T15:15:50;26.50;99.90
13433;DHT22;6789;47.678;9.158;2023-07-31T15:20:43;26.60;99.90
13433;DHT22;6789;47.678;9.158;2023-07-31T15:25:35;26.60;99.90
13433;DHT22;6789;47.678;9.158;2023-07-31T15:30:27;26.80;99.90
13433;DHT22;6789;47.678;9.158;2023-07-31T15:35:20;26.70;99.90
13433;DHT22;6789;47.678;9.158;2023-07-31T15:40:13;26.80;99.90
13433;DHT22;6789;47.678;9.158;2023-07-31T15:45:06;26.80;99.90
13433;DHT22;6789;47.678;9.158;2023-07-31T15:49:59;26.90;99.90
13433;DHT22;6789;47.678;9.158;2023-07-31T15:54:51;26.70;99.90
13433;DHT22;6789;47.678;9.158;2023-07-31T15:59:43;26.80;99.90
13433;DHT22;6789;47.678;9.158;2023-07-31T16:04:34;26.60;99.90
13433;DHT22;6789;47.678;9.158;2023-07-31T16:09:26;26.80;99.90
13433;DHT22;6789;47.678;9.158;2023-07-31T16:14:18;26.80;99.90
13433;DHT22;6789;47.678;9.158;2023-07-31T16:19:10;26.80;99.90
13433;DHT22;6789;47.678;9.158;2023-07-31T16:24:02;27.10;99.90
13433;DHT22;6789;47.678;9.158;2023-07-31T16:28:54;26.90;99.90
13433;DHT22;6789;47.678;9.158;2023-07-31T16:33:46;26.40;99.90
13433;DHT22;6789;47.678;9.158;2023-07-31T16:38:39;26.20;99.90
13433;DHT22;6789;47.678;9.158;2023-07-31T16:43:31;26.00;99.90
13433;DHT22;6789;47.678;9.158;2023-07-31T16:48:23;26.00;99.90
13433;DHT22;6789;47.678;9.158;2023-07-31T16:53:14;26.10;99.90
13433;DHT22;6789;47.678;9.158;2023-07-31T16:58:06;26.10;99.90
13433;DHT22;6789;47.678;9.158;2023-07-31T17:03:07;25.90;99.90
13433;DHT22;6789;47.678;9.158;2023-07-31T17:07:59;25.80;99.90
13433;DHT22;6789;47.678;9.158;2023-07-31T17:12:51;25.80;99.90
13433;DHT22;6789;47.678;9.158;2023-07-31T17:17:43;25.80;99.90
13433;DHT22;6789;47.678;9.158;2023-07-31T17:22:35;25.70;99.90
13433;DHT22;6789;47.678;9.158;2023-07-31T17:27:39;25.60;99.90
13433;DHT22;6789;47.678;9.158;2023-07-31T17:32:31;25.40;99.90
13433;DHT22;6789;47.678;9.158;2023-07-31T17:37:23;25.40;99.90
13433;DHT22;6789;47.678;9.158;2023-07-31T17:42:14;25.40;99.90
13433;DHT22;6789;47.678;9.158;2023-07-31T17:47:07;25.20;99.90
13433;DHT22;6789;47.678;9.158;2023-07-31T17:52:03;25.10;99.90
13433;DHT22;6789;47.678;9.158;2023-07-31T17:56:56;25.00;99.90
13433;DHT22;6789;47.678;9.158;2023-07-31T18:01:48;24.90;99.90
13433;DHT22;6789;47.678;9.158;2023-07-31T18:06:44;24.70;99.90
13433;DHT22;6789;47.678;9.158;2023-07-31T18:11:36;24.60;99.90
13433;DHT22;6789;47.678;9.158;2023-07-31T18:16:28;24.60;99.90
13433;DHT22;6789;47.678;9.158;2023-07-31T18:21:19;24.40;99.90
13433;DHT22;6789;47.678;9.158;2023-07-31T18:26:11;24.40;99.90
13433;DHT22;6789;47.678;9.158;2023-07-31T18:31:03;24.30;99.90
13433;DHT22;6789;47.678;9.158;2023-07-31T18:35:57;24.20;99.90
13433;DHT22;6789;47.678;9.158;2023-07-31T18:40:48;24.00;99.90
13433;DHT22;6789;47.678;9.158;2023-07-31T18:45:40;23.90;99.90
13433;DHT22;6789;47.678;9.158;2023-07-31T18:50:32;23.90;99.90
13433;DHT22;6789;47.678;9.158;2023-07-31T18:55:24;23.90;99.90
13433;DHT22;6789;47.678;9.158;2023-07-31T19:00:16;23.70;99.90
13433;DHT22;6789;47.678;9.158;2023-07-31T19:05:08;23.50;99.90
13433;DHT22;6789;47.678;9.158;2023-07-31T19:10:00;23.20;99.90
13433;DHT22;6789;47.678;9.158;2023-07-31T19:15:07;23.10;99.90
13433;DHT22;6789;47.678;9.158;2023-07-31T19:20:01;23.20;99.90
13433;DHT22;6789;47.678;9.158;2023-07-31T19:24:53;23.10;99.90
13433;DHT22;6789;47.678;9.158;2023-07-31T19:29:45;23.10;99.90
13433;DHT22;6789;47.678;9.158;2023-07-31T19:34:37;23.10;99.90
13433;DHT22;6789;47.678;9.158;2023-07-31T19:39:29;23.00;99.90
13433;DHT22;6789;47.678;9.158;2023-07-31T19:44:21;23.00;99.90
13433;DHT22;6789;47.678;9.158;2023-07-31T19:49:13;22.90;99.90
13433;DHT22;6789;47.678;9.158;2023-07-31T19:54:05;22.80;99.90
13433;DHT22;6789;47.678;9.158;2023-07-31T19:58:57;22.80;99.90
13433;DHT22;6789;47.678;9.158;2023-07-31T20:03:48;22.70;99.90
13433;DHT22;6789;47.678;9.158;2023-07-31T20:08:41;22.60;99.90
13433;DHT22;6789;47.678;9.158;2023-07-31T20:13:33;22.60;99.90
13433;DHT22;6789;47.678;9.158;2023-07-31T20:18:25;22.50;99.90
13433;DHT22;6789;47.678;9.158;2023-07-31T20:23:17;22.50;99.90
13433;DHT22;6789;47.678;9.158;2023-07-31T20:28:27;22.40;99.90
13433;DHT22;6789;47.678;9.158;2023-07-31T20:33:19;22.30;99.90
13433;DHT22;6789;47.678;9.158;2023-07-31T20:38:11;22.30;99.90
13433;DHT22;6789;47.678;9.158;2023-07-31T20:43:02;22.10;99.90
13433;DHT22;6789;47.678;9.158;2023-07-31T20:47:54;22.00;99.90
13433;DHT22;6789;47.678;9.158;2023-07-31T20:52:46;22.20;99.90
13433;DHT22;6789;47.678;9.158;2023-07-31T20:57:41;22.30;99.90
13433;DHT22;6789;47.678;9.158;2023-07-31T21:02:33;22.30;99.90
13433;DHT22;6789;47.678;9.158;2023-07-31T21:07:25;22.30;99.90
13433;DHT22;6789;47.678;9.158;2023-07-31T21:12:17;22.30;99.90
13433;DHT22;6789;47.678;9.158;2023-07-31T21:17:09;22.30;99.90
13433;DHT22;6789;47.678;9.158;2023-07-31T21:22:02;22.40;99.90
13433;DHT22;6789;47.678;9.158;2023-07-31T21:26:54;22.30;99.90
13433;DHT22;6789;47.678;9.158;2023-07-31T21:31:45;22.30;99.90
13433;DHT22;6789;47.678;9.158;2023-07-31T21:36:37;22.40;99.90
13433;DHT22;6789;47.678;9.158;2023-07-31T21:41:31;22.20;99.90
13433;DHT22;6789;47.678;9.158;2023-07-31T21:46:22;22.10;99.90
13433;DHT22;6789;47.678;9.158;2023-07-31T21:51:14;22.00;99.90
13433;DHT22;6789;47.678;9.158;2023-07-31T21:56:06;21.90;99.90
13433;DHT22;6789;47.678;9.158;2023-07-31T22:00:58;22.00;99.90
13433;DHT22;6789;47.678;9.158;2023-07-31T22:05:50;21.90;99.90
13433;DHT22;6789;47.678;9.158;2023-07-31T22:10:42;21.90;99.90
13433;DHT22;6789;47.678;9.158;2023-07-31T22:15:34;21.80;99.90
13433;DHT22;6789;47.678;9.158;2023-07-31T22:20:25;21.70;99.90
13433;DHT22;6789;47.678;9.158;2023-07-31T22:25:17;21.60;99.90
13433;DHT22;6789;47.678;9.158;2023-07-31T22:30:10;21.50;99.90
13433;DHT22;6789;47.678;9.158;2023-07-31T22:35:03;21.40;99.90
13433;DHT22;6789;47.678;9.158;2023-07-31T22:39:55;21.40;99.90
13433;DHT22;6789;47.678;9.158;2023-07-31T22:44:47;21.30;99.90
13433;DHT22;6789;47.678;9.158;2023-07-31T22:49:52;21.20;99.90
13433;DHT22;6789;47.678;9.158;2023-07-31T22:54:46;21.20;99.90
13433;DHT22;6789;47.678;9.158;2023-07-31T22:59:37;21.10;99.90
13433;DHT22;6789;47.678;9.158;2023-07-31T23:04:29;21.10;99.90
13433;DHT22;6789;47.678;9.158;2023-07-31T23:09:23;21.00;99.90
13433;DHT22;6789;47.678;9.158;2023-07-31T23:14:15;21.00;99.90
13433;DHT22;6789;47.678;9.158;2023-07-31T23:19:07;21.00;99.90
13433;DHT22;6789;47.678;9.158;2023-07-31T23:23:59;21.00;99.90
13433;DHT22;6789;47.678;9.158;2023-07-31T23:28:51;20.80;99.90
13433;DHT22;6789;47.678;9.158;2023-07-31T23:33:43;20.70;99.90
13433;DHT22;6789;47.678;9.158;2023-07-31T23:38:35;20.50;99.90
13433;DHT22;6789;47.678;9.158;2023-07-31T23:43:27;20.40;99.90
13433;DHT22;6789;47.678;9.158;2023-07-31T23:48:19;20.60;99.90
13433;DHT22;6789;47.678;9.158;2023-07-31T23:53:11;20.60;99.90
13433;DHT22;6789;47.678;9.158;2023-07-31T23:58:03;20.60;99.90
